Offutt Air Force Base, NE (68113)

11:04 PM CDT on October 25, 2014 (GMT -0500)
Offutt Air Force Base | Change Station
CLOSE
Current Station
Airport
Location: Omaha Offutt,
Elevation: 1047 ft
Nearby Weather Stations

Elev 1047 ft 41.12 °N, 95.91 °W | Updated 6 minutes ago

Clear
Clear
54 °F
Feels Like 54 °F
N
7
Wind Variable Wind from ENE

Today
High -- | Low -- °F
--% Chance of Precip.
Yesterday
High -- | Low -- °F
Precip. -- in
7:46 AM 6:28 PM
Waxing Crescent, 5% visible
Pressure 30.02 in
Visibility 10.0 miles
Clouds Clear
Dew Point 46 °F
Humidity 73%
Rainfall 0.01 in
Snow Depth Not available.
UV 0 out of 12
Pollen 2.00 out of 12
Ozone Good
PM2.5 Good
Flu Activity Sporadic
METAR KOFF 260358Z AUTO 06006KT 10SM CLR 13/08 A3001 RMK AO2 SLP165 T01250077

More Conditions Fewer Conditions

Pressure 30.02 in
Visibility 10.0 miles
Clouds Clear
Dew Point 46 °F
Humidity 73%
Rainfall 0.01 in
Snow Depth Not available.
UV 0 out of 12
Pollen 2.00 out of 12
Ozone Good
PM2.5 Good
Flu Activity Sporadic
METAR KOFF 260358Z AUTO 06006KT 10SM CLR 13/08 A3001 RMK AO2 SLP165 T01250077

More Conditions Fewer Conditions

10-Day Weather Forecast

Almanac

Astronomy

Oct. 25, 2014 Rise Set
Actual Time 7:46 AM CDT 6:28 PM CDT
Civil Twilight 7:18 AM CDT 6:56 PM CDT
Nautical Twilight 6:46 AM CDT 7:28 PM CDT
Astronomical Twilight 6:14 AM CDT 8:00 PM CDT
Moon 9:27 AM CDT (10/25) 7:51 PM CDT (10/25)
Length of Visible Light 11h 38m
Length of Day
10h 41m
Tomorrow will be 2m 32s shorter.
Waxing Crescent, 5% of the Moon is Illuminated
Oct 26
Waxing Crescent
Oct 30
First Quarter
Nov 6
Full
Nov 14
Last Quarter
Nov 22
New

Today's Extremes

State Highs State Lows

Community

WunderPhotos

Upload Photos

1,765,106 photos uploaded!

Nearby

Air Quality

  Air Quality AQ Index Pollutant
Yesterday Moderate
PM2.5
Yesterday Good
OZONE
Current Good
PM2.5
Current Good
OZONE
Saturday Good
PM2.5
Saturday Good
OZONE
Saturday Good
CO
Sunday Good
PM2.5
Sunday Good
OZONE
Sunday Good
CO

Snow Depth

Station Depth Elevation
No new snow has been reported.

Earthquake Activity

City Distance Mag. Time & Date
No recent earthquake activity has been reported nearby.
Minimum magnitude displayed is 2.5.

Coastal Water Temperatures

Place Temperature
No Stations Reporting

Nearby Weather Stations